createdAt,value
2022-12-20T00:01:33.599Z,4.10
2022-12-20T00:04:06.042Z,4.10
2022-12-20T00:06:38.173Z,3.90
2022-12-20T00:09:11.943Z,3.70
2022-12-20T00:11:44.030Z,3.60
2022-12-20T00:14:17.054Z,3.50
2022-12-20T00:16:48.786Z,3.40
2022-12-20T00:19:21.819Z,3.40
2022-12-20T00:21:53.681Z,3.30
2022-12-20T00:24:26.496Z,3.20
2022-12-20T00:26:58.416Z,3.10
2022-12-20T00:29:30.129Z,3.10
2022-12-20T00:32:01.894Z,3.00
2022-12-20T00:34:33.624Z,3.10
2022-12-20T00:37:05.444Z,3.00
2022-12-20T00:39:37.320Z,3.00
2022-12-20T00:42:09.060Z,3.00
2022-12-20T00:44:40.768Z,3.00
2022-12-20T00:47:12.557Z,3.00
2022-12-20T00:49:44.589Z,3.00
2022-12-20T00:52:16.317Z,3.00
2022-12-20T00:54:48.005Z,3.00
2022-12-20T00:57:19.741Z,2.90
2022-12-20T00:59:51.445Z,2.90
2022-12-20T01:02:23.352Z,2.90
2022-12-20T01:04:55.405Z,2.80
2022-12-20T01:07:27.079Z,2.80
2022-12-20T01:09:58.840Z,2.80
2022-12-20T01:12:30.509Z,3.00
2022-12-20T01:15:02.910Z,3.00
2022-12-20T01:17:34.935Z,2.90
2022-12-20T01:20:07.520Z,2.90
2022-12-20T01:22:43.854Z,2.80
2022-12-20T01:25:19.280Z,2.80
2022-12-20T01:27:50.934Z,2.80
2022-12-20T01:30:22.709Z,2.80
2022-12-20T01:32:54.400Z,2.80
2022-12-20T01:35:26.094Z,2.80
2022-12-20T01:37:57.745Z,2.70
2022-12-20T01:40:29.563Z,2.70
2022-12-20T01:43:01.269Z,2.70
2022-12-20T01:45:33.022Z,2.70
2022-12-20T01:48:05.102Z,2.60
2022-12-20T01:50:37.479Z,2.60
2022-12-20T01:53:10.560Z,2.60
2022-12-20T01:55:47.725Z,2.60
2022-12-20T01:58:20.877Z,2.60
2022-12-20T02:00:52.707Z,2.60
2022-12-20T02:03:25.571Z,2.60
2022-12-20T02:05:57.492Z,2.60
2022-12-20T02:08:29.322Z,2.60
2022-12-20T02:11:14.526Z,2.60
2022-12-20T02:14:13.946Z,2.60
2022-12-20T02:16:57.589Z,2.60
2022-12-20T02:19:40.941Z,2.60
2022-12-20T02:22:33.846Z,2.60
2022-12-20T02:25:42.871Z,2.60
2022-12-20T02:28:23.609Z,2.50
2022-12-20T02:31:00.599Z,2.50
2022-12-20T02:33:32.289Z,2.50
2022-12-20T02:36:04.787Z,2.50
2022-12-20T02:38:38.226Z,2.50
2022-12-20T02:41:45.311Z,2.50
2022-12-20T02:44:38.949Z,2.50
2022-12-20T02:47:15.079Z,2.50
2022-12-20T02:49:48.800Z,2.50
2022-12-20T02:52:22.597Z,2.50
2022-12-20T02:54:55.627Z,2.50
2022-12-20T02:57:39.418Z,2.50
2022-12-20T03:00:14.769Z,2.50
2022-12-20T03:03:06.952Z,2.50
2022-12-20T03:05:47.076Z,2.50
2022-12-20T03:08:20.263Z,2.50
2022-12-20T03:10:53.495Z,2.50
2022-12-20T03:13:25.863Z,2.50
2022-12-20T03:15:57.712Z,2.50
2022-12-20T03:18:29.529Z,2.60
2022-12-20T03:21:01.286Z,2.60
2022-12-20T03:23:33.122Z,2.50
2022-12-20T03:26:04.873Z,2.50
2022-12-20T03:28:36.593Z,2.50
2022-12-20T03:31:09.126Z,2.40
2022-12-20T03:33:42.796Z,2.40
2022-12-20T03:36:14.579Z,2.40
2022-12-20T03:38:46.303Z,2.40
2022-12-20T03:41:19.272Z,2.40
2022-12-20T03:43:51.160Z,2.30
2022-12-20T03:46:22.969Z,2.30
2022-12-20T03:48:54.867Z,2.30
2022-12-20T03:51:26.555Z,2.40
2022-12-20T03:53:58.302Z,2.40
2022-12-20T03:56:30.050Z,2.40
2022-12-20T03:59:02.369Z,2.50
2022-12-20T04:01:36.788Z,2.50
2022-12-20T04:04:12.262Z,2.50
2022-12-20T04:06:44.049Z,2.50
2022-12-20T04:09:16.065Z,2.60
2022-12-20T04:11:48.189Z,2.60
2022-12-20T04:14:19.930Z,2.60
2022-12-20T04:16:51.765Z,2.60
2022-12-20T04:19:23.567Z,2.60
2022-12-20T04:22:00.824Z,2.50
2022-12-20T04:24:36.359Z,2.50
2022-12-20T04:27:08.018Z,2.60
2022-12-20T04:29:39.700Z,2.50
2022-12-20T04:32:11.414Z,2.60
2022-12-20T04:34:43.084Z,2.70
2022-12-20T04:37:14.800Z,2.80
2022-12-20T04:39:46.527Z,2.90
2022-12-20T04:42:18.279Z,2.90
2022-12-20T04:44:50.061Z,3.00
2022-12-20T04:47:21.890Z,3.00
2022-12-20T04:49:53.614Z,3.00
2022-12-20T04:52:48.055Z,3.00
2022-12-20T04:55:20.003Z,3.00
2022-12-20T04:57:51.719Z,3.10
2022-12-20T05:00:23.614Z,3.10
2022-12-20T05:02:55.543Z,3.10
2022-12-20T05:05:27.876Z,3.10
2022-12-20T05:07:59.990Z,3.10
2022-12-20T05:10:31.779Z,3.20
2022-12-20T05:13:09.003Z,3.20
2022-12-20T05:15:41.961Z,3.20
2022-12-20T05:18:13.737Z,3.20
2022-12-20T05:20:45.572Z,3.20
2022-12-20T05:23:36.025Z,3.30
2022-12-20T05:26:18.320Z,3.30
2022-12-20T05:28:50.275Z,3.30
2022-12-20T05:31:22.128Z,3.30
2022-12-20T05:33:54.268Z,3.30
2022-12-20T05:36:26.019Z,3.30
2022-12-20T05:39:03.597Z,3.30
2022-12-20T05:41:35.836Z,3.30
2022-12-20T05:44:08.069Z,3.30
2022-12-20T05:46:39.788Z,3.30
2022-12-20T05:49:11.627Z,3.30
2022-12-20T05:51:43.429Z,3.30
2022-12-20T05:54:15.168Z,3.30
2022-12-20T05:56:46.974Z,3.30
2022-12-20T05:59:19.905Z,3.30
2022-12-20T06:01:51.698Z,3.30
2022-12-20T06:04:23.610Z,3.30
2022-12-20T06:06:55.313Z,3.30
2022-12-20T06:09:27.227Z,3.30
2022-12-20T06:11:59.425Z,3.20
2022-12-20T06:14:31.239Z,3.20
2022-12-20T06:17:03.033Z,3.20
2022-12-20T06:19:34.828Z,3.20
2022-12-20T06:22:06.499Z,3.20
2022-12-20T06:24:44.317Z,3.20
2022-12-20T06:27:21.555Z,3.30
2022-12-20T06:29:54.515Z,3.30
2022-12-20T06:32:26.389Z,3.30
2022-12-20T06:34:58.164Z,3.40
2022-12-20T06:37:30.122Z,3.50
2022-12-20T06:40:02.245Z,3.50
2022-12-20T06:42:33.971Z,3.60
2022-12-20T06:45:06.945Z,3.60
2022-12-20T06:47:39.223Z,3.70
2022-12-20T06:50:11.113Z,3.90
2022-12-20T06:52:42.782Z,3.90
2022-12-20T06:55:15.177Z,3.80
2022-12-20T06:57:46.930Z,3.80
2022-12-20T07:00:19.246Z,3.90
2022-12-20T07:02:51.157Z,4.00
2022-12-20T07:05:23.148Z,4.00
2022-12-20T07:07:54.892Z,4.00
2022-12-20T07:10:26.856Z,4.00
2022-12-20T07:12:58.613Z,3.90
2022-12-20T07:15:30.509Z,3.80
2022-12-20T07:18:03.170Z,3.80
2022-12-20T07:20:35.079Z,3.70
2022-12-20T07:23:06.869Z,3.70
2022-12-20T07:25:38.596Z,3.70
2022-12-20T07:28:10.277Z,3.70
2022-12-20T07:30:41.997Z,3.70
2022-12-20T07:33:13.804Z,3.70
2022-12-20T07:35:50.940Z,3.70
2022-12-20T07:38:26.387Z,3.70
2022-12-20T07:40:58.134Z,3.80
2022-12-20T07:43:29.900Z,3.80
2022-12-20T07:46:02.498Z,3.80
2022-12-20T07:48:35.153Z,3.80
2022-12-20T07:51:10.465Z,3.80
2022-12-20T07:53:48.664Z,3.80
2022-12-20T07:56:22.453Z,3.80
2022-12-20T07:58:58.930Z,3.80
2022-12-20T08:01:31.866Z,3.90
2022-12-20T08:04:08.747Z,3.90
2022-12-20T08:06:41.607Z,3.90
2022-12-20T08:09:14.595Z,4.00
2022-12-20T08:11:50.250Z,4.10
2022-12-20T08:14:22.301Z,4.20
2022-12-20T08:16:54.060Z,4.30
2022-12-20T08:19:32.047Z,4.40
2022-12-20T08:22:05.318Z,4.60
2022-12-20T08:24:37.005Z,4.80
2022-12-20T08:27:08.963Z,5.10
2022-12-20T08:29:41.005Z,5.40
2022-12-20T08:32:14.156Z,5.50
2022-12-20T08:34:45.899Z,5.60
2022-12-20T08:37:18.085Z,5.80
2022-12-20T08:39:50.000Z,5.90
2022-12-20T08:42:22.383Z,6.00
2022-12-20T08:44:54.100Z,5.90
2022-12-20T08:47:25.937Z,5.70
2022-12-20T08:49:57.782Z,5.70
2022-12-20T08:52:30.423Z,5.60
2022-12-20T08:55:03.176Z,5.70
2022-12-20T08:57:36.780Z,5.70
2022-12-20T09:00:09.128Z,5.70
2022-12-20T09:02:41.855Z,5.60
2022-12-20T09:05:13.922Z,5.50
2022-12-20T09:07:45.702Z,5.40
2022-12-20T09:10:17.402Z,5.30
2022-12-20T09:12:49.202Z,5.30
2022-12-20T09:15:20.952Z,5.30
2022-12-20T09:17:52.684Z,5.20
2022-12-20T09:20:25.657Z,5.20
2022-12-20T09:22:59.157Z,5.10
2022-12-20T09:25:30.911Z,5.20
2022-12-20T09:28:02.785Z,5.20
2022-12-20T09:30:34.627Z,5.10
2022-12-20T09:33:10.292Z,5.10
2022-12-20T09:35:47.132Z,5.10
2022-12-20T09:38:18.885Z,5.20
2022-12-20T09:40:53.769Z,5.20
2022-12-20T09:43:25.787Z,5.40
2022-12-20T09:46:02.803Z,5.50
2022-12-20T09:48:38.882Z,5.50
2022-12-20T09:51:10.538Z,5.60
2022-12-20T09:53:57.096Z,5.70
2022-12-20T09:56:39.546Z,5.80
2022-12-20T09:59:18.502Z,6.00
2022-12-20T10:01:50.897Z,6.20
2022-12-20T10:04:24.210Z,6.50
2022-12-20T10:07:22.077Z,6.60
2022-12-20T10:10:05.846Z,6.90
2022-12-20T10:12:55.232Z,7.00
2022-12-20T10:15:54.613Z,7.00
2022-12-20T10:18:51.205Z,7.10
2022-12-20T10:21:41.944Z,6.90
2022-12-20T10:24:19.720Z,6.70
2022-12-20T10:26:52.385Z,6.80
2022-12-20T10:29:24.295Z,6.70
2022-12-20T10:32:00.603Z,6.50
2022-12-20T10:34:38.092Z,6.30
2022-12-20T10:37:14.605Z,6.10
2022-12-20T10:39:51.720Z,6.00
2022-12-20T10:42:43.147Z,5.90
2022-12-20T10:45:14.832Z,5.80
2022-12-20T10:47:49.952Z,5.80
2022-12-20T10:50:24.985Z,5.80
2022-12-20T10:53:21.654Z,5.80
2022-12-20T10:55:54.480Z,5.80
2022-12-20T10:58:32.294Z,5.80
2022-12-20T11:01:25.296Z,5.80
2022-12-20T11:03:57.191Z,5.80
2022-12-20T11:06:37.793Z,5.90
2022-12-20T11:09:25.582Z,5.90
2022-12-20T11:12:15.657Z,6.30
2022-12-20T11:14:49.343Z,6.60
2022-12-20T11:17:34.691Z,6.80
2022-12-20T11:20:35.670Z,6.80
2022-12-20T11:23:48.482Z,6.70
2022-12-20T11:26:42.662Z,6.70
2022-12-20T11:29:44.754Z,6.80
2022-12-20T11:32:48.861Z,6.80
2022-12-20T11:35:33.118Z,6.70
2022-12-20T11:38:18.029Z,6.70
2022-12-20T11:40:53.913Z,6.60
2022-12-20T11:44:24.031Z,6.50
2022-12-20T11:47:18.708Z,6.50
2022-12-20T11:50:02.998Z,6.40
2022-12-20T11:52:53.491Z,6.50
2022-12-20T11:55:37.880Z,6.50
2022-12-20T11:58:18.564Z,6.60
2022-12-20T12:01:13.913Z,6.70
2022-12-20T12:04:14.561Z,6.70
2022-12-20T12:06:58.012Z,6.70
2022-12-20T12:09:45.193Z,6.70
2022-12-20T12:12:27.165Z,6.70
2022-12-20T12:15:01.705Z,6.70
2022-12-20T12:17:46.020Z,6.70
2022-12-20T12:20:29.112Z,6.60
2022-12-20T12:23:16.460Z,6.40
2022-12-20T12:25:48.307Z,6.40
2022-12-20T12:28:22.646Z,6.40
2022-12-20T12:31:03.621Z,6.60
2022-12-20T12:33:41.963Z,6.90
2022-12-20T12:36:22.392Z,7.00
2022-12-20T12:39:12.477Z,7.10
2022-12-20T12:42:18.448Z,7.30
2022-12-20T12:44:53.664Z,7.30
2022-12-20T12:47:34.943Z,7.30
2022-12-20T12:50:23.922Z,7.40
2022-12-20T12:53:05.274Z,7.70
2022-12-20T12:55:39.210Z,7.80
2022-12-20T12:58:22.906Z,7.90
2022-12-20T13:01:02.060Z,7.70
2022-12-20T13:03:52.318Z,7.50
2022-12-20T13:06:25.180Z,7.40
2022-12-20T13:09:00.152Z,7.20
2022-12-20T13:11:46.835Z,7.10
2022-12-20T13:14:25.418Z,6.90
2022-12-20T13:17:12.791Z,7.00
2022-12-20T13:19:54.723Z,7.00
2022-12-20T13:22:26.980Z,7.00
2022-12-20T13:25:02.806Z,6.90
2022-12-20T13:27:39.202Z,6.70
2022-12-20T13:30:11.737Z,6.90
2022-12-20T13:32:49.398Z,6.90
2022-12-20T13:35:28.222Z,6.70
2022-12-20T13:38:05.937Z,6.60
2022-12-20T13:40:49.829Z,6.40
2022-12-20T13:43:24.398Z,6.30
2022-12-20T13:46:13.285Z,6.20
2022-12-20T13:48:47.822Z,6.10
2022-12-20T13:51:26.245Z,6.10
2022-12-20T13:54:04.047Z,6.00
2022-12-20T13:56:49.880Z,5.90
2022-12-20T13:59:31.093Z,5.90
2022-12-20T14:02:12.348Z,5.90
2022-12-20T14:04:51.363Z,5.80
2022-12-20T14:07:23.279Z,5.80
2022-12-20T14:09:57.392Z,5.80
2022-12-20T14:12:36.397Z,5.90
2022-12-20T14:15:31.627Z,5.90
2022-12-20T14:18:21.355Z,5.90
2022-12-20T14:21:01.845Z,5.90
2022-12-20T14:23:45.256Z,5.90
2022-12-20T14:26:22.353Z,5.90
2022-12-20T14:28:59.011Z,5.90
2022-12-20T14:31:33.799Z,5.80
2022-12-20T14:34:13.154Z,5.80
2022-12-20T14:36:50.037Z,5.80
2022-12-20T14:39:26.135Z,5.90
2022-12-20T14:41:58.027Z,5.80
2022-12-20T14:44:31.777Z,5.80
2022-12-20T14:47:20.078Z,5.80
2022-12-20T14:49:57.952Z,5.70
2022-12-20T14:52:32.779Z,5.70
2022-12-20T14:55:19.996Z,5.70
2022-12-20T14:57:54.696Z,5.70
2022-12-20T15:00:31.991Z,5.70
2022-12-20T15:03:18.778Z,5.60
2022-12-20T15:05:56.136Z,5.60
2022-12-20T15:08:32.319Z,5.50
2022-12-20T15:11:10.494Z,5.40
2022-12-20T15:13:46.741Z,5.40
2022-12-20T15:16:29.869Z,5.40
2022-12-20T15:19:02.597Z,5.50
2022-12-20T15:21:37.390Z,5.50
2022-12-20T15:24:19.828Z,5.50
2022-12-20T15:26:52.103Z,5.50
2022-12-20T15:29:28.198Z,5.40
2022-12-20T15:32:07.903Z,5.40
2022-12-20T15:34:39.998Z,5.30
2022-12-20T15:37:18.308Z,5.30
2022-12-20T15:39:50.683Z,5.20
2022-12-20T15:42:24.374Z,5.10
2022-12-20T15:44:57.137Z,5.10
2022-12-20T15:47:28.855Z,5.00
2022-12-20T15:50:00.687Z,5.00
2022-12-20T15:52:32.833Z,4.90
2022-12-20T15:55:04.839Z,4.90
2022-12-20T15:57:36.661Z,4.90
2022-12-20T16:00:12.270Z,4.90
2022-12-20T16:02:44.669Z,4.90
2022-12-20T16:05:16.679Z,4.90
2022-12-20T16:07:48.441Z,4.90
2022-12-20T16:10:20.172Z,4.90
2022-12-20T16:12:51.876Z,4.90
2022-12-20T16:15:23.857Z,5.00
2022-12-20T16:17:55.758Z,5.00
2022-12-20T16:20:29.431Z,5.00
2022-12-20T16:23:03.391Z,5.00
2022-12-20T16:25:36.874Z,5.10
2022-12-20T16:28:08.564Z,5.20
2022-12-20T16:30:41.171Z,5.10
2022-12-20T16:33:20.554Z,5.10
2022-12-20T16:35:52.262Z,5.10
2022-12-20T16:38:24.351Z,5.10
2022-12-20T16:40:56.213Z,5.00
2022-12-20T16:43:27.978Z,5.00
2022-12-20T16:45:59.711Z,5.00
2022-12-20T16:48:31.633Z,4.90
2022-12-20T16:51:03.452Z,4.90
2022-12-20T16:54:02.222Z,4.90
2022-12-20T16:56:27.584Z,4.90
2022-12-20T16:59:18.611Z,4.80
2022-12-20T17:01:56.652Z,4.90
2022-12-20T17:04:28.607Z,4.90
2022-12-20T17:07:00.457Z,4.90
2022-12-20T17:09:32.172Z,4.90
2022-12-20T17:12:05.645Z,4.80
2022-12-20T17:14:37.381Z,4.80
2022-12-20T17:17:09.247Z,4.80
2022-12-20T17:19:41.416Z,4.80
2022-12-20T17:25:04.092Z,4.80
2022-12-20T17:27:35.856Z,4.80
2022-12-20T17:30:08.244Z,4.90
2022-12-20T17:32:41.157Z,5.00
2022-12-20T17:35:19.524Z,5.20
2022-12-20T17:37:54.093Z,5.30
2022-12-20T17:40:27.614Z,5.40
2022-12-20T17:42:59.368Z,5.50
2022-12-20T17:45:33.317Z,5.50
2022-12-20T17:48:05.435Z,5.50
2022-12-20T17:50:37.197Z,5.50
2022-12-20T17:53:09.972Z,5.40
2022-12-20T17:55:41.619Z,5.30
2022-12-20T17:58:13.312Z,5.30
2022-12-20T18:00:45.113Z,5.20
2022-12-20T18:03:53.483Z,5.10
2022-12-20T18:06:09.547Z,5.10
2022-12-20T18:08:41.713Z,5.10
2022-12-20T18:11:13.365Z,5.00
2022-12-20T18:13:47.463Z,5.00
2022-12-20T18:16:21.764Z,4.90
2022-12-20T18:18:54.141Z,4.90
2022-12-20T18:21:27.164Z,4.90
2022-12-20T18:23:58.882Z,4.90
2022-12-20T18:26:32.723Z,4.90
2022-12-20T18:29:04.523Z,4.90
2022-12-20T18:31:36.642Z,5.10
2022-12-20T18:34:09.662Z,5.30
2022-12-20T18:36:41.440Z,5.60
2022-12-20T18:39:14.210Z,5.70
2022-12-20T18:41:47.595Z,5.70
2022-12-20T18:44:19.377Z,5.70
2022-12-20T18:46:51.065Z,5.70
2022-12-20T18:49:22.770Z,6.20
2022-12-20T18:51:54.532Z,6.40
2022-12-20T18:54:26.432Z,6.60
2022-12-20T18:56:58.432Z,6.70
2022-12-20T18:59:30.175Z,6.50
2022-12-20T19:02:02.413Z,6.30
2022-12-20T19:04:34.321Z,6.10
2022-12-20T19:07:06.305Z,6.00
2022-12-20T19:09:37.981Z,5.90
2022-12-20T19:12:09.744Z,5.80
2022-12-20T19:14:41.652Z,6.00
2022-12-20T19:17:13.415Z,6.10
2022-12-20T19:19:45.192Z,6.10
2022-12-20T19:22:16.911Z,6.10
2022-12-20T19:24:48.633Z,6.10
2022-12-20T19:27:20.360Z,6.20
2022-12-20T19:29:54.416Z,6.20
2022-12-20T19:32:26.114Z,6.30
2022-12-20T19:34:57.924Z,6.50
2022-12-20T19:37:36.998Z,6.50
2022-12-20T19:40:10.489Z,6.40
2022-12-20T19:42:42.236Z,6.40
2022-12-20T19:45:13.973Z,6.40
2022-12-20T19:47:45.770Z,6.40
2022-12-20T19:50:17.589Z,6.40
2022-12-20T19:52:51.255Z,6.40
2022-12-20T19:55:23.239Z,6.40
2022-12-20T19:57:55.020Z,6.40
2022-12-20T20:00:27.460Z,6.50
2022-12-20T20:02:59.795Z,6.60
2022-12-20T20:05:34.758Z,6.90
2022-12-20T20:08:06.657Z,7.10
2022-12-20T20:10:38.448Z,7.40
2022-12-20T20:13:10.599Z,7.50
2022-12-20T20:15:48.922Z,7.30
2022-12-20T20:18:21.221Z,7.20
2022-12-20T20:20:54.584Z,7.20
2022-12-20T20:23:27.429Z,7.30
2022-12-20T20:26:00.026Z,7.40
2022-12-20T20:28:35.945Z,7.50
2022-12-20T20:31:11.979Z,7.60
2022-12-20T20:33:43.971Z,7.80
2022-12-20T20:36:18.554Z,7.80
2022-12-20T20:38:51.678Z,7.90
2022-12-20T20:41:23.442Z,7.80
2022-12-20T20:43:55.131Z,7.90
2022-12-20T20:46:27.087Z,7.80
2022-12-20T20:48:58.851Z,7.80
2022-12-20T20:51:30.582Z,7.80
2022-12-20T20:54:02.323Z,7.80
2022-12-20T20:56:34.079Z,7.80
2022-12-20T20:59:08.288Z,7.70
2022-12-20T21:01:43.907Z,7.80
2022-12-20T21:04:15.880Z,7.70
2022-12-20T21:06:47.557Z,7.70
2022-12-20T21:09:19.306Z,7.80
2022-12-20T21:11:51.187Z,7.80
2022-12-20T21:14:45.078Z,7.80
2022-12-20T21:17:14.775Z,7.80
2022-12-20T21:19:46.527Z,7.80
2022-12-20T21:22:18.236Z,7.60
2022-12-20T21:24:50.141Z,7.60
2022-12-20T21:27:21.913Z,7.40
2022-12-20T21:29:53.613Z,7.20
2022-12-20T21:32:26.169Z,7.00
2022-12-20T21:34:59.419Z,6.80
2022-12-20T21:37:31.882Z,6.60
2022-12-20T21:40:04.029Z,6.40
2022-12-20T21:42:35.850Z,6.30
2022-12-20T21:45:08.185Z,6.10
2022-12-20T21:47:39.940Z,6.00
2022-12-20T21:50:14.209Z,5.90
2022-12-20T21:52:45.921Z,5.80
2022-12-20T21:55:17.600Z,5.70
2022-12-20T21:57:49.319Z,5.70
2022-12-20T22:00:22.952Z,5.60
2022-12-20T22:02:54.828Z,5.50
2022-12-20T22:05:26.724Z,5.50
2022-12-20T22:07:58.397Z,5.40
2022-12-20T22:10:30.512Z,5.40
2022-12-20T22:13:02.166Z,5.40
2022-12-20T22:15:34.132Z,5.30
2022-12-20T22:18:07.389Z,5.30
2022-12-20T22:20:39.073Z,5.30
2022-12-20T22:23:10.942Z,5.30
2022-12-20T22:25:42.683Z,5.20
2022-12-20T22:28:14.412Z,5.20
2022-12-20T22:30:46.348Z,5.10
2022-12-20T22:33:18.097Z,5.10
2022-12-20T22:35:49.990Z,5.10
2022-12-20T22:38:21.659Z,5.10
2022-12-20T22:40:58.692Z,5.10
2022-12-20T22:43:30.892Z,5.10
2022-12-20T22:46:02.701Z,5.10
2022-12-20T22:48:34.406Z,5.10
2022-12-20T22:51:12.522Z,5.00
2022-12-20T22:53:44.991Z,5.00
2022-12-20T22:56:18.749Z,5.00
2022-12-20T22:58:50.732Z,4.90
2022-12-20T23:01:22.638Z,4.90
2022-12-20T23:03:54.673Z,4.90
2022-12-20T23:06:26.456Z,4.90
2022-12-20T23:08:58.188Z,4.90
2022-12-20T23:11:48.863Z,4.90
2022-12-20T23:14:40.809Z,4.90
2022-12-20T23:17:12.538Z,4.90
2022-12-20T23:20:02.901Z,4.90
2022-12-20T23:22:37.742Z,5.00
2022-12-20T23:25:17.276Z,5.00
2022-12-20T23:27:50.007Z,5.00
2022-12-20T23:30:23.786Z,5.00
2022-12-20T23:32:56.290Z,5.00
2022-12-20T23:35:28.601Z,5.00
2022-12-20T23:38:00.376Z,5.00
2022-12-20T23:40:32.073Z,5.00
2022-12-20T23:43:03.936Z,5.00
2022-12-20T23:45:35.726Z,5.00
2022-12-20T23:48:07.760Z,5.10
2022-12-20T23:50:39.425Z,5.10
2022-12-20T23:53:11.245Z,5.10
2022-12-20T23:55:42.924Z,5.00
2022-12-20T23:58:14.732Z,5.10
